createdAt,value
2019-04-26T00:02:23.706Z,8.40
2019-04-26T00:04:54.433Z,8.30
2019-04-26T00:07:24.867Z,8.57
2019-04-26T00:09:56.745Z,8.40
2019-04-26T00:12:28.500Z,8.93
2019-04-26T00:15:06.585Z,9.47
2019-04-26T00:17:38.602Z,8.93
2019-04-26T00:20:09.087Z,9.20
2019-04-26T00:22:39.371Z,9.50
2019-04-26T00:25:09.975Z,9.93
2019-04-26T00:27:43.057Z,9.80
2019-04-26T00:30:14.856Z,10.07
2019-04-26T00:32:44.950Z,9.97
2019-04-26T00:35:15.659Z,11.00
2019-04-26T00:37:45.984Z,9.70
2019-04-26T00:40:16.283Z,11.20
2019-04-26T00:42:47.057Z,11.17
2019-04-26T00:45:18.697Z,11.87
2019-04-26T00:47:50.432Z,11.13
2019-04-26T00:50:21.297Z,12.40
2019-04-26T00:52:52.804Z,12.00
2019-04-26T00:55:23.954Z,11.97
2019-04-26T00:57:54.025Z,11.40
2019-04-26T01:00:24.662Z,12.53
2019-04-26T01:02:56.347Z,12.13
2019-04-26T01:05:27.046Z,11.63
2019-04-26T01:07:57.877Z,12.20
2019-04-26T01:10:30.583Z,12.67
2019-04-26T01:13:00.794Z,12.13
2019-04-26T01:15:30.917Z,13.67
2019-04-26T01:18:01.160Z,13.30
2019-04-26T01:20:33.317Z,13.60
2019-04-26T01:23:06.310Z,12.97
2019-04-26T01:25:47.921Z,14.87
2019-04-26T01:28:29.957Z,13.03
2019-04-26T01:31:03.761Z,14.00
2019-04-26T01:33:36.079Z,14.80
2019-04-26T01:36:12.837Z,14.80
2019-04-26T01:38:38.766Z,15.80
2019-04-26T01:41:12.940Z,17.43
2019-04-26T01:43:46.215Z,16.23
2019-04-26T01:46:26.828Z,15.23
2019-04-26T01:49:06.073Z,16.60
2019-04-26T01:51:51.424Z,16.37
2019-04-26T01:54:25.693Z,16.27
2019-04-26T01:56:58.852Z,16.30
2019-04-26T01:59:29.511Z,17.33
2019-04-26T02:02:16.584Z,17.23
2019-04-26T02:04:48.614Z,16.67
2019-04-26T02:07:20.484Z,17.10
2019-04-26T02:09:50.538Z,17.13
2019-04-26T02:12:20.763Z,16.23
2019-04-26T02:14:50.976Z,15.73
2019-04-26T02:17:21.148Z,16.37
2019-04-26T02:19:51.323Z,16.10
2019-04-26T02:22:24.398Z,15.30
2019-04-26T02:24:55.474Z,15.77
2019-04-26T02:27:28.239Z,14.87
2019-04-26T02:30:00.024Z,16.40
2019-04-26T02:32:31.387Z,15.33
2019-04-26T02:35:03.544Z,16.13
2019-04-26T02:37:34.786Z,15.77
2019-04-26T02:40:08.787Z,16.60
2019-04-26T02:42:41.956Z,15.93
2019-04-26T02:45:24.222Z,15.83
2019-04-26T02:48:14.070Z,15.90
2019-04-26T02:50:57.656Z,14.63
2019-04-26T02:53:55.337Z,16.90
2019-04-26T02:56:32.233Z,17.57
2019-04-26T02:59:24.474Z,18.67
2019-04-26T03:01:57.822Z,17.03
2019-04-26T03:04:31.011Z,16.90
2019-04-26T03:07:05.245Z,17.97
2019-04-26T03:09:38.911Z,16.97
2019-04-26T03:12:17.738Z,17.73
2019-04-26T03:14:52.510Z,18.47
2019-04-26T03:17:30.744Z,17.03
2019-04-26T03:20:18.635Z,18.30
2019-04-26T03:23:00.918Z,17.57
2019-04-26T03:25:57.956Z,17.60
2019-04-26T03:28:42.047Z,16.60
2019-04-26T03:31:36.248Z,18.63
2019-04-26T03:34:15.849Z,18.00
2019-04-26T03:37:20.663Z,19.50
2019-04-26T03:40:01.047Z,15.87
2019-04-26T03:42:44.114Z,17.47
2019-04-26T03:45:40.415Z,16.20
2019-04-26T03:48:18.939Z,17.53
2019-04-26T03:50:52.396Z,16.77
2019-04-26T03:53:25.448Z,16.17
2019-04-26T03:56:10.819Z,19.20
2019-04-26T03:59:00.923Z,19.50
2019-04-26T04:01:37.379Z,18.97
2019-04-26T04:04:13.508Z,19.33
2019-04-26T04:06:58.120Z,18.50
2019-04-26T04:09:18.105Z,18.93
2019-04-26T04:12:09.543Z,18.63
2019-04-26T04:14:48.862Z,18.63
2019-04-26T04:17:27.057Z,19.23
2019-04-26T04:20:14.032Z,17.47
2019-04-26T04:22:50.575Z,17.60
2019-04-26T04:25:33.196Z,19.33
2019-04-26T04:28:26.192Z,16.40
2019-04-26T04:30:59.576Z,19.17
2019-04-26T04:33:43.728Z,18.20
2019-04-26T04:36:16.512Z,20.10
2019-04-26T04:38:49.654Z,18.67
2019-04-26T04:41:41.227Z,19.07
2019-04-26T04:44:35.826Z,18.23
2019-04-26T04:47:25.333Z,19.37
2019-04-26T04:50:14.651Z,21.57
2019-04-26T04:52:54.975Z,20.97
2019-04-26T04:55:30.553Z,20.70
2019-04-26T04:58:12.273Z,20.80
2019-04-26T05:01:02.378Z,21.10
2019-04-26T05:04:00.387Z,22.00
2019-04-26T05:07:03.974Z,21.07
2019-04-26T05:09:45.845Z,20.90
2019-04-26T05:12:31.019Z,20.57
2019-04-26T05:15:36.122Z,21.13
2019-04-26T05:18:15.003Z,21.73
2019-04-26T05:21:00.314Z,21.30
2019-04-26T05:23:53.152Z,22.57
2019-04-26T05:26:42.831Z,20.63
2019-04-26T05:29:35.270Z,22.57
2019-04-26T05:32:26.966Z,22.73
2019-04-26T05:35:11.358Z,22.37
2019-04-26T05:38:18.402Z,21.20
2019-04-26T05:41:02.950Z,23.13
2019-04-26T05:43:54.106Z,23.83
2019-04-26T05:46:46.832Z,24.13
2019-04-26T05:49:51.798Z,23.13
2019-04-26T05:52:32.789Z,21.30
2019-04-26T05:55:19.497Z,22.60
2019-04-26T05:58:13.063Z,23.00
2019-04-26T06:01:31.042Z,22.20
2019-04-26T06:04:28.593Z,23.33
2019-04-26T06:07:33.909Z,22.73
2019-04-26T06:10:31.671Z,21.47
2019-04-26T06:13:21.157Z,21.23
2019-04-26T06:16:07.777Z,22.20
2019-04-26T06:19:02.113Z,22.17
2019-04-26T06:21:47.271Z,21.93
2019-04-26T06:24:38.871Z,20.47
2019-04-26T06:27:34.684Z,20.00
2019-04-26T06:30:07.703Z,20.17
2019-04-26T06:33:06.464Z,21.60
2019-04-26T06:35:41.090Z,20.40
2019-04-26T06:38:43.666Z,19.77
2019-04-26T06:41:23.461Z,19.87
2019-04-26T06:44:09.890Z,20.37
2019-04-26T06:46:56.293Z,19.27
2019-04-26T06:49:31.223Z,20.03
2019-04-26T06:52:13.239Z,20.03
2019-04-26T06:55:12.497Z,19.57
2019-04-26T06:58:09.524Z,19.37
2019-04-26T07:01:01.916Z,20.43
2019-04-26T07:03:47.033Z,20.90
2019-04-26T07:06:20.563Z,19.07
2019-04-26T07:08:57.648Z,21.20
2019-04-26T07:11:56.476Z,20.43
2019-04-26T07:14:54.647Z,20.87
2019-04-26T07:17:53.535Z,20.73
2019-04-26T07:20:26.843Z,20.33
2019-04-26T07:23:39.325Z,21.43
2019-04-26T07:26:47.704Z,22.23
2019-04-26T07:29:40.225Z,20.47
2019-04-26T07:32:16.376Z,21.50
2019-04-26T07:35:21.206Z,22.73
2019-04-26T07:38:29.086Z,24.50
2019-04-26T07:41:12.209Z,23.50
2019-04-26T07:44:15.581Z,25.40
2019-04-26T07:47:06.519Z,26.70
2019-04-26T07:49:56.440Z,25.50
2019-04-26T07:52:56.991Z,24.73
2019-04-26T07:55:36.306Z,26.20
2019-04-26T07:58:43.009Z,25.27
2019-04-26T08:01:20.775Z,27.07
2019-04-26T08:03:55.621Z,27.33
2019-04-26T08:06:31.734Z,26.83
2019-04-26T08:09:25.983Z,27.27
2019-04-26T08:11:54.450Z,28.73
2019-04-26T08:14:27.531Z,27.60
2019-04-26T08:17:14.845Z,26.13
2019-04-26T08:20:11.482Z,26.53
2019-04-26T08:22:45.762Z,23.97
2019-04-26T08:25:18.675Z,26.67
2019-04-26T08:27:51.000Z,25.00
2019-04-26T08:30:22.861Z,26.20
2019-04-26T08:33:02.122Z,26.70
2019-04-26T08:35:35.938Z,25.63
2019-04-26T08:38:16.192Z,26.80
2019-04-26T08:40:41.412Z,27.00
2019-04-26T08:43:30.792Z,27.10
2019-04-26T08:46:12.974Z,26.67
2019-04-26T08:48:49.998Z,26.87
2019-04-26T08:51:22.044Z,25.90
2019-04-26T08:53:55.501Z,27.07
2019-04-26T08:56:37.604Z,28.10
2019-04-26T08:59:25.503Z,27.80
2019-04-26T09:02:07.010Z,25.37
2019-04-26T09:04:48.174Z,25.83
2019-04-26T09:07:22.726Z,25.93
2019-04-26T09:09:57.316Z,28.20
2019-04-26T09:12:29.859Z,26.03
2019-04-26T09:15:03.062Z,26.03
2019-04-26T09:17:33.802Z,24.70
2019-04-26T09:20:07.880Z,24.63
2019-04-26T09:22:38.894Z,25.63
2019-04-26T09:25:13.819Z,25.27
2019-04-26T09:27:51.735Z,25.63
2019-04-26T09:30:42.286Z,24.43
2019-04-26T09:33:45.815Z,25.70
2019-04-26T09:36:18.060Z,25.00
2019-04-26T09:38:47.536Z,25.83
2019-04-26T09:41:17.645Z,27.60
2019-04-26T09:43:58.580Z,28.03
2019-04-26T09:46:36.890Z,28.10
2019-04-26T09:49:08.647Z,27.03
2019-04-26T09:51:40.427Z,28.27
2019-04-26T09:54:10.562Z,27.40
2019-04-26T09:56:40.927Z,28.17
2019-04-26T09:59:11.121Z,28.80
2019-04-26T10:01:41.360Z,28.17
2019-04-26T10:04:11.507Z,28.83
2019-04-26T10:06:41.614Z,29.77
2019-04-26T10:09:17.181Z,30.13
2019-04-26T10:11:52.025Z,30.30
2019-04-26T10:14:39.139Z,28.77
2019-04-26T10:17:15.783Z,29.10
2019-04-26T10:19:50.294Z,30.07
2019-04-26T10:22:21.267Z,30.67
2019-04-26T10:24:53.344Z,28.63
2019-04-26T10:27:23.852Z,26.53
2019-04-26T10:29:55.734Z,26.17
2019-04-26T10:32:27.698Z,25.20
2019-04-26T10:34:58.083Z,23.50
2019-04-26T10:37:38.889Z,23.60
2019-04-26T10:40:00.014Z,22.83
2019-04-26T10:42:30.630Z,22.03
2019-04-26T10:45:02.506Z,23.13
2019-04-26T10:47:34.271Z,21.87
2019-04-26T10:50:04.865Z,20.70
2019-04-26T10:52:36.938Z,20.37
2019-04-26T10:55:12.174Z,20.90
2019-04-26T10:57:44.134Z,21.00
2019-04-26T11:00:17.985Z,19.93
2019-04-26T11:02:51.772Z,20.17
2019-04-26T11:05:21.881Z,20.13
2019-04-26T11:07:53.423Z,20.83
2019-04-26T11:10:24.505Z,20.87
2019-04-26T11:12:54.926Z,17.90
2019-04-26T11:15:25.254Z,18.03
2019-04-26T11:17:55.569Z,18.33
2019-04-26T11:20:25.807Z,19.13
2019-04-26T11:22:55.803Z,18.23
2019-04-26T11:25:28.288Z,18.07
2019-04-26T11:27:59.054Z,17.23
2019-04-26T11:30:29.229Z,17.33
2019-04-26T11:32:59.469Z,17.30
2019-04-26T11:35:33.268Z,15.90
2019-04-26T11:38:22.011Z,17.10
2019-04-26T11:41:05.116Z,16.50
2019-04-26T11:43:24.111Z,13.53
2019-04-26T11:46:03.769Z,9.70
2019-04-26T11:48:29.222Z,8.50
2019-04-26T11:50:57.755Z,7.03
2019-04-26T11:53:27.888Z,7.93
2019-04-26T11:56:00.241Z,7.97
2019-04-26T11:58:29.734Z,8.37
2019-04-26T12:01:01.431Z,8.90
2019-04-26T12:03:31.453Z,7.90
2019-04-26T12:06:03.304Z,8.47
2019-04-26T12:08:49.977Z,6.60
2019-04-26T12:11:26.141Z,7.37
2019-04-26T12:13:55.351Z,6.87
2019-04-26T12:16:24.974Z,6.97
2019-04-26T12:18:55.816Z,8.00
2019-04-26T12:21:26.150Z,7.50
2019-04-26T12:23:56.420Z,7.03
2019-04-26T12:26:26.799Z,8.93
2019-04-26T12:28:56.782Z,8.20
2019-04-26T12:31:27.369Z,7.97
2019-04-26T12:33:57.905Z,8.60
2019-04-26T12:36:28.347Z,7.53
2019-04-26T12:39:02.121Z,7.57
2019-04-26T12:41:39.763Z,7.57
2019-04-26T12:44:03.353Z,7.30
2019-04-26T12:46:35.214Z,6.80
2019-04-26T12:49:05.290Z,7.37
2019-04-26T12:51:38.276Z,6.77
2019-04-26T12:54:09.800Z,6.07
2019-04-26T12:56:39.648Z,6.80
2019-04-26T12:59:09.955Z,5.83
2019-04-26T13:01:42.588Z,5.87
2019-04-26T13:04:11.854Z,5.97
2019-04-26T13:06:43.754Z,5.60
2019-04-26T13:09:17.469Z,4.97
2019-04-26T13:12:01.459Z,5.43
2019-04-26T13:14:48.656Z,5.83
2019-04-26T13:17:31.313Z,5.30
2019-04-26T13:20:00.959Z,5.00
2019-04-26T13:22:32.103Z,4.50
2019-04-26T13:25:02.534Z,4.43
2019-04-26T13:27:32.493Z,4.40
2019-04-26T13:30:02.906Z,4.37
2019-04-26T13:32:34.152Z,4.47
2019-04-26T13:35:07.178Z,3.93
2019-04-26T13:37:37.041Z,3.80
2019-04-26T13:40:07.998Z,4.03
2019-04-26T13:42:37.986Z,4.40
2019-04-26T13:45:09.984Z,3.13
2019-04-26T13:47:41.813Z,3.23
2019-04-26T13:50:13.669Z,3.00
2019-04-26T13:52:44.164Z,3.07
2019-04-26T13:55:14.509Z,3.20
2019-04-26T13:57:45.992Z,2.80
2019-04-26T14:00:17.999Z,2.70
2019-04-26T14:02:47.895Z,3.00
2019-04-26T14:05:17.913Z,3.47
2019-04-26T14:07:48.160Z,2.83
2019-04-26T14:10:18.823Z,3.13
2019-04-26T14:12:49.990Z,2.97
2019-04-26T14:15:20.870Z,3.70
2019-04-26T14:17:50.972Z,2.90
2019-04-26T14:20:24.611Z,3.30
2019-04-26T14:23:15.261Z,3.30
2019-04-26T14:25:55.558Z,2.93
2019-04-26T14:28:25.891Z,2.97
2019-04-26T14:30:56.097Z,3.60
2019-04-26T14:33:27.018Z,3.00
2019-04-26T14:35:58.171Z,3.27
2019-04-26T14:38:39.502Z,3.60
2019-04-26T14:41:04.060Z,2.90
2019-04-26T14:43:40.396Z,3.10
2019-04-26T14:46:05.291Z,3.63
2019-04-26T14:48:36.505Z,3.13
2019-04-26T14:51:08.054Z,2.73
2019-04-26T14:53:38.962Z,3.30
2019-04-26T14:56:24.647Z,2.80
2019-04-26T14:58:56.483Z,3.10
2019-04-26T15:01:35.239Z,2.77
2019-04-26T15:04:28.087Z,3.17
2019-04-26T15:06:58.056Z,2.80
2019-04-26T15:09:33.116Z,3.10
2019-04-26T15:12:02.998Z,4.17
2019-04-26T15:14:33.245Z,3.40
2019-04-26T15:17:03.432Z,2.83
2019-04-26T15:19:35.143Z,3.87
2019-04-26T15:22:10.423Z,3.37
2019-04-26T15:24:38.597Z,4.10
2019-04-26T15:27:08.839Z,4.03
2019-04-26T15:29:38.905Z,4.30
2019-04-26T15:32:09.024Z,4.70
2019-04-26T15:34:39.158Z,5.03
2019-04-26T15:37:09.203Z,4.80
2019-04-26T15:39:59.307Z,4.87
2019-04-26T15:42:58.731Z,4.70
2019-04-26T15:48:50.260Z,5.13
2019-04-26T15:51:20.231Z,5.00
2019-04-26T15:53:53.369Z,4.93
2019-04-26T15:56:23.555Z,5.37
2019-04-26T15:59:12.941Z,5.60
2019-04-26T16:01:47.903Z,5.50
2019-04-26T16:04:17.258Z,5.83
2019-04-26T16:06:47.662Z,5.87
2019-04-26T16:09:20.702Z,7.53
2019-04-26T16:11:53.099Z,6.67
2019-04-26T16:14:30.988Z,5.83
2019-04-26T16:16:58.229Z,6.80
2019-04-26T16:19:29.250Z,6.67
2019-04-26T16:21:59.843Z,6.73
2019-04-26T16:24:30.307Z,7.93
2019-04-26T16:27:00.703Z,7.50
2019-04-26T16:29:50.895Z,7.90
2019-04-26T16:32:43.250Z,7.63
2019-04-26T16:35:14.101Z,9.30
2019-04-26T16:37:44.658Z,9.40
2019-04-26T16:40:15.124Z,9.33
2019-04-26T16:42:45.543Z,11.37
2019-04-26T16:45:16.079Z,10.00
2019-04-26T16:47:48.749Z,11.47
2019-04-26T16:50:24.098Z,11.70
2019-04-26T16:52:53.153Z,11.03
2019-04-26T16:55:24.743Z,11.80
2019-04-26T16:57:58.191Z,11.53
2019-04-26T17:00:47.188Z,12.23
2019-04-26T17:03:02.552Z,12.23
2019-04-26T17:05:45.404Z,12.40
2019-04-26T17:08:05.048Z,11.83
2019-04-26T17:10:33.599Z,11.47
2019-04-26T17:13:03.749Z,11.80
2019-04-26T17:15:34.534Z,11.27
2019-04-26T17:18:05.349Z,11.47
2019-04-26T17:20:35.588Z,11.70
2019-04-26T17:23:07.322Z,12.03
2019-04-26T17:25:59.140Z,11.27
2019-04-26T17:28:27.596Z,11.70
2019-04-26T17:30:58.449Z,12.80
2019-04-26T17:33:29.502Z,12.00
2019-04-26T17:35:59.554Z,12.90
2019-04-26T17:38:31.227Z,12.40
2019-04-26T17:41:01.813Z,13.90
2019-04-26T17:43:32.063Z,11.73
2019-04-26T17:46:02.169Z,11.23
2019-04-26T17:48:33.618Z,9.33
2019-04-26T17:51:03.929Z,8.63
2019-04-26T17:53:34.245Z,7.70
2019-04-26T17:56:04.560Z,8.27
2019-04-26T17:58:49.129Z,8.60
2019-04-26T18:01:06.557Z,9.07
2019-04-26T18:03:36.941Z,9.47
2019-04-26T18:06:09.606Z,8.83
2019-04-26T18:08:47.580Z,8.67
2019-04-26T18:11:18.890Z,9.13
2019-04-26T18:13:42.766Z,8.33
2019-04-26T18:16:13.755Z,9.00
2019-04-26T18:19:03.272Z,8.23
2019-04-26T18:21:44.721Z,8.97
2019-04-26T18:24:16.379Z,8.63
2019-04-26T18:26:46.726Z,8.63
2019-04-26T18:29:16.933Z,8.87
2019-04-26T18:31:47.288Z,9.60
2019-04-26T18:34:17.794Z,9.40
2019-04-26T18:36:47.987Z,9.93
2019-04-26T18:39:21.854Z,11.83
2019-04-26T18:41:49.666Z,13.03
2019-04-26T18:44:19.598Z,14.50
2019-04-26T18:47:03.522Z,16.03
2019-04-26T18:49:33.745Z,16.70
2019-04-26T18:52:03.993Z,16.30
2019-04-26T18:54:35.557Z,15.70
2019-04-26T18:57:09.329Z,15.73
2019-04-26T18:59:37.254Z,18.53
2019-04-26T19:02:07.590Z,18.10
2019-04-26T19:04:43.253Z,18.63
2019-04-26T19:07:12.108Z,21.33
2019-04-26T19:09:56.766Z,22.47
2019-04-26T19:12:14.150Z,21.73
2019-04-26T19:14:49.616Z,21.73
2019-04-26T19:17:26.050Z,24.00
2019-04-26T19:19:58.172Z,25.27
2019-04-26T19:22:28.617Z,27.67
2019-04-26T19:24:58.702Z,27.53
2019-04-26T19:27:28.911Z,30.30
2019-04-26T19:30:04.316Z,32.80
2019-04-26T19:32:35.194Z,33.43
2019-04-26T19:35:06.979Z,33.87
2019-04-26T19:37:36.971Z,37.30
2019-04-26T19:40:09.193Z,37.13
2019-04-26T19:42:39.706Z,35.93
2019-04-26T19:45:17.171Z,37.07
2019-04-26T19:47:48.360Z,38.30
2019-04-26T19:50:21.771Z,39.23
2019-04-26T19:53:01.757Z,38.33
2019-04-26T19:55:33.679Z,39.77
2019-04-26T19:58:09.795Z,40.40
2019-04-26T20:00:43.466Z,42.33
2019-04-26T20:03:16.788Z,40.57
2019-04-26T20:05:45.666Z,40.40
2019-04-26T20:08:16.003Z,41.67
2019-04-26T20:10:46.237Z,43.13
2019-04-26T20:13:16.813Z,40.70
2019-04-26T20:15:46.972Z,42.03
2019-04-26T20:18:17.556Z,40.43
2019-04-26T20:20:48.170Z,39.53
2019-04-26T20:23:19.716Z,40.97
2019-04-26T20:25:51.406Z,42.10
2019-04-26T20:28:22.775Z,41.20
2019-04-26T20:31:08.467Z,41.87
2019-04-26T20:33:38.141Z,42.67
2019-04-26T20:36:08.376Z,43.43
2019-04-26T20:38:45.581Z,43.73
2019-04-26T20:41:13.255Z,45.03
2019-04-26T20:43:46.240Z,41.93
2019-04-26T20:46:15.564Z,44.33
2019-04-26T20:48:45.830Z,43.13
2019-04-26T20:51:18.240Z,44.83
2019-04-26T20:53:47.958Z,44.87
2019-04-26T20:56:18.725Z,44.70
2019-04-26T20:58:49.259Z,45.40
2019-04-26T21:01:19.799Z,46.07
2019-04-26T21:03:51.613Z,47.63
2019-04-26T21:06:22.325Z,47.03
2019-04-26T21:08:54.156Z,44.83
2019-04-26T21:11:24.973Z,44.47
2019-04-26T21:13:55.017Z,43.60
2019-04-26T21:16:25.450Z,43.63
2019-04-26T21:18:55.658Z,45.17
2019-04-26T21:21:25.641Z,44.63
2019-04-26T21:23:55.829Z,44.80
2019-04-26T21:26:27.485Z,44.10
2019-04-26T21:28:59.336Z,45.37
2019-04-26T21:31:40.851Z,43.83
2019-04-26T21:34:12.504Z,42.23
2019-04-26T21:36:54.631Z,42.63
2019-04-26T21:39:26.318Z,42.20
2019-04-26T21:41:58.188Z,42.63
2019-04-26T21:44:28.243Z,41.70
2019-04-26T21:46:58.979Z,41.57
2019-04-26T21:49:30.107Z,40.37
2019-04-26T21:52:00.448Z,39.17
2019-04-26T21:54:30.859Z,39.20
2019-04-26T21:57:01.305Z,38.33
2019-04-26T21:59:35.136Z,39.97
2019-04-26T22:02:03.661Z,36.93
2019-04-26T22:04:37.571Z,37.23
2019-04-26T22:07:07.687Z,36.10
2019-04-26T22:09:55.613Z,36.03
2019-04-26T22:12:27.381Z,36.50
2019-04-26T22:15:13.662Z,36.73
2019-04-26T22:17:48.292Z,33.20
2019-04-26T22:20:30.754Z,34.53
2019-04-26T22:23:05.625Z,34.40
2019-04-26T22:25:37.349Z,34.83
2019-04-26T22:28:07.620Z,33.73
2019-04-26T22:30:38.095Z,36.17
2019-04-26T22:33:09.908Z,36.10
2019-04-26T22:35:43.846Z,35.60
2019-04-26T22:38:17.533Z,35.60
2019-04-26T22:40:48.610Z,36.10
2019-04-26T22:43:31.832Z,35.70
2019-04-26T22:46:26.976Z,36.80
2019-04-26T22:49:01.052Z,37.50
2019-04-26T22:51:28.514Z,38.53
2019-04-26T22:53:57.525Z,39.53
2019-04-26T22:56:32.486Z,37.37
2019-04-26T22:59:04.826Z,37.30
2019-04-26T23:01:33.056Z,36.87
2019-04-26T23:04:04.561Z,38.30
2019-04-26T23:09:33.285Z,36.10
2019-04-26T23:12:25.111Z,36.60
2019-04-26T23:14:59.421Z,36.77
2019-04-26T23:17:32.111Z,36.10
2019-04-26T23:20:23.353Z,35.13
2019-04-26T23:22:53.111Z,35.43
2019-04-26T23:25:23.814Z,34.40
2019-04-26T23:27:55.115Z,35.80
2019-04-26T23:30:27.676Z,32.87
2019-04-26T23:32:57.791Z,31.50
2019-04-26T23:35:28.020Z,30.90
2019-04-26T23:38:00.938Z,31.97
2019-04-26T23:40:29.720Z,31.63
2019-04-26T23:42:59.791Z,30.93
2019-04-26T23:45:29.946Z,32.03
2019-04-26T23:48:00.032Z,33.13
2019-04-26T23:50:30.508Z,31.57
2019-04-26T23:53:00.831Z,31.23
2019-04-26T23:55:31.044Z,30.90
2019-04-26T23:58:06.499Z,29.90
